Captain Jimmy T Moran — WDE6653 — position and weather

sailwx.info

Track history (hours):
 
Tides and Currents Weather Stations Pressure Air Temp Water Temp Dewpoint Dewpoint Depression Visibility Wind Speed Wind Dir Waves Ship Positions

Captain Jimmy T Moran

More information available from US FCC via Universal Licensing System and Coast Guard Vessel Documentation Center.

Last reported at 2014-Sep-04 08:25 UTC. Time now 2014-Sep-15 02:05 UTC.
Position N 29°55' W 090°06'.
Warning: this ship's position is 10 days out of date.

Length 26 m; draft 4.9 m.

Type: Tug. MMSI: 367382920.

Date/timePositionNaut miles runAvg speedWind from/ knotsBaromVisibWave heightAir tempDewpointWater temp
2014-Sep-04 08:25N 29°55' W 090°06'1 0.0
2014-Sep-03 07:28N 29°55' W 090°07'1 0.7
2014-Sep-03 06:23N 29°55' W 090°06'0 0.2
2014-Sep-03 05:29N 29°55' W 090°06'16 0.3
2014-Sep-01 06:29N 29°58' W 090°24'3 3.1
2014-Sep-01 05:33N 29°60' W 090°26'0 0.0
2014-Sep-01 04:33N 29°60' W 090°26'0 0.0
2014-Sep-01 03:33N 29°60' W 090°26'0 0.0
2014-Sep-01 02:33N 29°60' W 090°26'0 0.0
2014-Sep-01 01:33N 29°60' W 090°26'0 0.0
2014-Sep-01 00:33N 29°60' W 090°26'0 0.0
2014-Aug-31 23:33N 29°60' W 090°26'0 0.0
2014-Aug-31 22:33N 29°60' W 090°26'0 0.2
2014-Aug-31 21:33N 29°60' W 090°26'0 0.4
2014-Aug-31 20:33N 29°60' W 090°27'1 0.5
2014-Aug-31 19:32N 29°60' W 090°26'2 1.7
2014-Aug-31 18:33N 30°00' W 090°28'6 6.3
2014-Aug-31 17:33N 30°03' W 090°34'1 0.5
2014-Aug-31 16:33N 30°03' W 090°35'0 0.0
2014-Aug-31 15:33N 30°03' W 090°35'0 0.0
2014-Aug-31 14:33N 30°03' W 090°35'0 0.0
2014-Aug-31 13:33N 30°03' W 090°35'0 0.0
2014-Aug-31 12:33N 30°03' W 090°35'1 0.7
2014-Aug-31 11:33N 30°03' W 090°36'0 0.0
2014-Aug-31 10:33N 30°03' W 090°36'7 6.9
2014-Aug-31 09:33N 30°01' W 090°28'5 3.6
2014-Aug-31 08:18N 29°59' W 090°24'1 0.7
2014-Aug-31 07:21N 29°59' W 090°24'0 0.1
2014-Aug-31 06:31N 29°59' W 090°24'0 0.0
2014-Aug-31 05:31N 29°59' W 090°24'3 2.9
2014-Aug-31 04:33N 29°57' W 090°23'15 0.6
2014-Aug-30 03:29N 29°55' W 090°06'  
Track history (hours):
 
Tides and Currents Weather Stations Pressure Air Temp Water Temp Dewpoint Dewpoint Depression Visibility Wind Speed Wind Dir Waves Ship Positions

Captain Jimmy T Moran

More information available from US FCC via Universal Licensing System and Coast Guard Vessel Documentation Center.

Last reported at 2014-Sep-04 08:25 UTC. Time now 2014-Sep-15 02:05 UTC.
Position N 29°55' W 090°06'.
Warning: this ship's position is 10 days out of date.

Length 26 m; draft 4.9 m.

Type: Tug. MMSI: 367382920.

Date/timePositionNaut miles runAvg speedWind from/ knotsBaromVisibWave heightAir tempDewpointWater temp
2014-Sep-04 08:25N 29°55' W 090°06'1 0.0
2014-Sep-03 07:28N 29°55' W 090°07'1 0.7
2014-Sep-03 06:23N 29°55' W 090°06'0 0.2
2014-Sep-03 05:29N 29°55' W 090°06'16 0.3
2014-Sep-01 06:29N 29°58' W 090°24'3 3.1
2014-Sep-01 05:33N 29°60' W 090°26'0 0.0
2014-Sep-01 04:33N 29°60' W 090°26'0 0.0
2014-Sep-01 03:33N 29°60' W 090°26'0 0.0
2014-Sep-01 02:33N 29°60' W 090°26'0 0.0
2014-Sep-01 01:33N 29°60' W 090°26'0 0.0
2014-Sep-01 00:33N 29°60' W 090°26'0 0.0
2014-Aug-31 23:33N 29°60' W 090°26'0 0.0
2014-Aug-31 22:33N 29°60' W 090°26'0 0.2
2014-Aug-31 21:33N 29°60' W 090°26'0 0.4
2014-Aug-31 20:33N 29°60' W 090°27'1 0.5
2014-Aug-31 19:32N 29°60' W 090°26'2 1.7
2014-Aug-31 18:33N 30°00' W 090°28'6 6.3
2014-Aug-31 17:33N 30°03' W 090°34'1 0.5
2014-Aug-31 16:33N 30°03' W 090°35'0 0.0
2014-Aug-31 15:33N 30°03' W 090°35'0 0.0
2014-Aug-31 14:33N 30°03' W 090°35'0 0.0
2014-Aug-31 13:33N 30°03' W 090°35'0 0.0
2014-Aug-31 12:33N 30°03' W 090°35'1 0.7
2014-Aug-31 11:33N 30°03' W 090°36'0 0.0
2014-Aug-31 10:33N 30°03' W 090°36'7 6.9
2014-Aug-31 09:33N 30°01' W 090°28'5 3.6
2014-Aug-31 08:18N 29°59' W 090°24'1 0.7
2014-Aug-31 07:21N 29°59' W 090°24'0 0.1
2014-Aug-31 06:31N 29°59' W 090°24'0 0.0
2014-Aug-31 05:31N 29°59' W 090°24'3 2.9
2014-Aug-31 04:33N 29°57' W 090°23'15 0.6
2014-Aug-30 03:29N 29°55' W 090°06'  

Dump ship's entire track history